• Join FlightAware (Why Join?)
  • Login
  • US Flag 
06:57AM EDT


 

Airport Tracker/Info


-or-


 

Live Flight TrackerFlight Track Log ✈ CTL14 ✈ 23-Apr-2013 ✈ KBAK - KBMI

Flight Track Log - Related Links

Times and Time Zones

All times are in EDT time to prevent confusion due to time zone crossing. See the CTL14 flight status page for this flight to view local times or setup timezone preferences in your user account.

Time Position Orientation Groundspeed Altitude Reporting Facility
EDT Latitude Longitude Course Direction KTS MPH feet Rate Location/Type
09:09PM 39.2833 -85.9000 360° North 118 136 1,200  Level Indianapolis TRACON
09:10PM 39.3167 -85.9000 360° North 141 162 2,000 900 Climbing Indianapolis TRACON
09:11PM 39.3522 -85.9072 351° North 153 176 2,800 720 Climbing Indianapolis Center
09:12PM 39.3978 -85.9200 348° North 167 192 3,500 720 Climbing Indianapolis Center
09:13PM 39.4225 -85.9647 306° West 158 182 4,300 780 Climbing Indianapolis Center
09:14PM 39.4408 -86.0075 299° West 141 162 5,200 720 Climbing Indianapolis Center
09:15PM 39.4606 -86.0489 302° West 135 155 5,800 360 Climbing Indianapolis Center
09:16PM 39.4761 -86.0950 294° West 136 157 6,000 60 Climbing Indianapolis Center
09:17PM 39.4969 -86.1447 299° West 150 173 6,000  Level Indianapolis Center
09:18PM 39.5225 -86.2019 300° West 155 178 6,000  Level Indianapolis Center
09:19PM 39.5428 -86.2531 297° West 157 181 6,000  Level Indianapolis Center
09:20PM 39.5567 -86.3039 290° West 152 175 6,000 -60 Level Indianapolis Center
09:21PM 39.5789 -86.3544 300° West 159 183 5,900 -60 Descending Indianapolis Center
09:22PM 39.5997 -86.4053 298° West 158 182 5,900  Level Indianapolis Center
09:23PM 39.6197 -86.4561 297° West 156 180 6,000  Climbing Indianapolis Center
09:24PM 39.6389 -86.5072 296° West 156 180 6,000  Level Indianapolis Center
09:25PM 39.6619 -86.5575 301° West 160 184 6,000 -60 Level Indianapolis Center
09:26PM 39.6778 -86.6097 292° West 156 180 5,900 -60 Descending Indianapolis Center
09:27PM 39.6978 -86.6622 296° West 157 181 5,900  Level Indianapolis Center
09:28PM 39.7169 -86.7147 295° West 160 184 5,900  Level Indianapolis Center
09:29PM 39.7353 -86.7650 295° West 156 180 5,900  Level Indianapolis Center
09:30PM 39.7539 -86.8139 296° West 151 174 6,000  Climbing Indianapolis Center
09:31PM 39.7728 -86.8625 297° West 149 171 5,900  Descending Indianapolis Center
09:32PM 39.7914 -86.9142 295° West 155 178 6,000 60 Climbing Indianapolis Center
09:33PM 39.8131 -86.9653 299° West 159 183 6,100 -60 Climbing Indianapolis Center
09:34PM 39.8367 -87.0147 302° West 160 184 5,900 -120 Descending Indianapolis Center
09:35PM 39.8594 -87.0717 298° West 155 178 5,900  Level Indianapolis Center
09:36PM 39.8783 -87.1228 296° West 153 176 6,000  Climbing Indianapolis Center
09:37PM 39.8981 -87.1764 296° West 160 184 5,900 -60 Descending Indianapolis Center
09:38PM 39.9183 -87.2286 297° West 161 185 5,900  Level Indianapolis Center
09:39PM 39.9386 -87.2817 297° West 163 188 6,000  Climbing Indianapolis Center
09:40PM 39.9625 -87.3339 301° West 165 190 6,000  Level Indianapolis Center
09:41PM 39.9758 -87.3900 287° West 163 188 6,000  Level Indianapolis Center
09:42PM 39.9947 -87.4425 295° West 161 185 6,000 -60 Level Indianapolis Center
09:43PM 40.0119 -87.4928 294° West 156 180 5,900 -120 Descending Indianapolis Center
09:44PM 40.0319 -87.5408 299° West 152 175 5,800 -240 Descending Indianapolis Center
09:45PM 40.0519 -87.5894 298° West 151 174 5,500 -540 Descending Indianapolis Center
09:46PM 40.0706 -87.6450 294° West 159 183 4,700 -720 Descending Indianapolis Center
09:47PM 40.0867 -87.7161 287° West 169 194 4,100 -240 Descending Indianapolis Center
09:50PM 40.1075 -87.8419 282° West 162 186 4,000  Descending Chicago Center
09:51PM 40.1172 -87.9000 282° West 160 184 4,100  Climbing Chicago Center
09:52PM 40.1261 -87.9675 280° West 159 183 4,000 -60 Descending Chicago Center
09:53PM 40.1353 -88.0239 282° West 159 183 4,000  Level Chicago Center
09:54PM 40.1472 -88.0803 286° West 160 184 4,000  Level Chicago Center
09:55PM 40.1564 -88.1378 282° West 161 185 4,000  Level Chicago Center
09:56PM 40.1675 -88.1975 284° West 165 190 4,000  Level Chicago Center
09:57PM 40.1803 -88.2633 284° West 167 192 4,000  Level Chicago Center
09:58PM 40.1903 -88.3217 283° West 167 192 4,000  Level Chicago Center
09:59PM 40.2042 -88.3828 287° West 165 190 4,000 -60 Level Chicago Center
10:00PM 40.2358 -88.4258 314° West 164 189 3,900  Descending Chicago Center
10:01PM 40.2658 -88.4711 311° West 165 190 4,000  Climbing Chicago Center
10:02PM 40.2914 -88.5133 308° West 162 186 4,000 -420 Level Chicago Center
10:03PM 40.3333 -88.5669 316° Northwest 172 198 3,200 -480 Descending Chicago Center
10:04PM 40.3617 -88.6150 308° West 170 196 3,100 -60 Descending Chicago Center
10:05PM 40.3869 -88.6625 305° West 161 185 3,100 -60 Level Chicago Center
10:06PM 40.4131 -88.7092 306° West 160 184 3,000 -60 Descending Chicago Center
10:07PM 40.4364 -88.7531 305° West 151 174 3,000 -300 Level Chicago Center
10:08PM 40.4536 -88.8089 292° West 159 183 2,500 -420 Descending Chicago Center
10:09PM 40.4678 -88.8600 290° West 160 184 2,200 -300 Descending Chicago Center
10:11PM 40.4667 -88.9000 303° West  Level FlightAware Approximate
10:18PM 40.4771 -88.9159 303° West  Level Estimated
10:19PM 40.4771 -88.9159 303° West  Level Estimated
10:20PM 40.4771 -88.9159 303° West  Level Estimated